createdAt,value
2018-10-02T00:01:39.737Z,69.90
2018-10-02T00:04:11.529Z,70.60
2018-10-02T00:06:41.512Z,71.10
2018-10-02T00:09:13.800Z,70.90
2018-10-02T00:11:49.366Z,72.10
2018-10-02T00:14:24.737Z,70.20
2018-10-02T00:16:54.517Z,71.20
2018-10-02T00:19:24.504Z,71.70
2018-10-02T00:21:54.875Z,72.30
2018-10-02T00:35:09.173Z,73.10
2018-10-02T00:37:57.410Z,73.20
2018-10-02T00:40:35.923Z,74.00
2018-10-02T00:44:10.659Z,75.10
2018-10-02T01:02:58.278Z,75.20
2018-10-02T01:05:29.769Z,75.20
2018-10-02T01:08:07.683Z,77.20
2018-10-02T01:10:37.793Z,75.50
2018-10-02T01:15:49.631Z,76.70
2018-10-02T01:18:19.921Z,76.50
2018-10-02T01:20:50.749Z,76.50
2018-10-02T01:23:22.387Z,76.60
2018-10-02T01:25:53.688Z,76.20
2018-10-02T01:28:24.583Z,75.60
2018-10-02T01:30:57.727Z,77.60
2018-10-02T01:33:33.405Z,76.70
2018-10-02T01:36:32.411Z,75.20
2018-10-02T01:39:05.752Z,76.00
2018-10-02T01:41:35.406Z,77.10
2018-10-02T01:44:05.663Z,76.70
2018-10-02T01:46:35.642Z,76.50
2018-10-02T01:49:05.881Z,76.60
2018-10-02T01:51:35.897Z,77.50
2018-10-02T01:54:06.012Z,76.70
2018-10-02T01:56:36.139Z,75.50
2018-10-02T01:59:06.020Z,75.30
2018-10-02T02:01:35.663Z,78.70
2018-10-02T02:04:05.853Z,77.30
2018-10-02T02:06:36.195Z,77.10
2018-10-02T02:09:13.141Z,77.30
2018-10-02T02:11:43.918Z,78.20
2018-10-02T02:14:14.135Z,77.00
2018-10-02T02:16:44.194Z,77.60
2018-10-02T02:19:15.715Z,77.40
2018-10-02T02:21:46.109Z,76.80
2018-10-02T02:24:16.735Z,77.40
2018-10-02T02:26:46.859Z,77.60
2018-10-02T02:29:17.365Z,79.40
2018-10-02T02:31:47.862Z,78.00
2018-10-02T05:30:27.496Z,88.60
2018-10-02T05:32:57.063Z,86.20
2018-10-02T05:35:30.227Z,87.70
2018-10-02T05:37:59.806Z,86.30
2018-10-02T05:40:29.565Z,87.00
2018-10-02T05:42:59.692Z,86.10
2018-10-02T05:45:29.907Z,87.00
2018-10-02T05:47:59.828Z,85.40
2018-10-02T05:50:29.615Z,85.60
2018-10-02T05:52:59.070Z,85.60
2018-10-02T05:55:30.733Z,85.50
2018-10-02T05:58:00.963Z,84.70
2018-10-02T06:00:30.706Z,84.80
2018-10-02T06:03:00.624Z,84.20
2018-10-02T06:05:31.610Z,86.80
2018-10-02T06:08:01.179Z,85.80
2018-10-02T06:10:35.347Z,85.00
2018-10-02T06:13:05.393Z,85.30
2018-10-02T06:15:35.031Z,86.20
2018-10-02T06:18:05.156Z,86.00
2018-10-02T06:20:34.876Z,85.80
2018-10-02T06:23:04.524Z,85.90
2018-10-02T06:25:34.147Z,85.60
2018-10-02T06:30:41.854Z,86.90
2018-10-02T06:33:11.456Z,86.20
2018-10-02T06:35:41.395Z,85.10
2018-10-02T06:38:10.940Z,86.00
2018-10-02T06:40:40.514Z,85.90
2018-10-02T06:43:10.382Z,85.40
2018-10-02T06:45:39.995Z,85.30
2018-10-02T06:48:10.905Z,84.00
2018-10-02T06:50:40.637Z,85.70
2018-10-02T06:53:10.143Z,85.00
2018-10-02T06:55:39.663Z,85.60
2018-10-02T06:58:10.349Z,83.30
2018-10-02T07:00:40.312Z,83.40
2018-10-02T07:03:10.563Z,82.60
2018-10-02T07:05:40.971Z,84.10
2018-10-02T07:08:44.455Z,83.00
2018-10-02T07:11:23.372Z,83.40
2018-10-02T07:13:53.178Z,83.20
2018-10-02T07:16:23.127Z,82.20
2018-10-02T07:18:52.985Z,83.10
2018-10-02T07:21:22.979Z,82.20
2018-10-02T07:23:52.554Z,82.20
2018-10-02T07:26:22.119Z,81.10
2018-10-02T07:28:52.259Z,80.50
2018-10-02T07:31:21.898Z,79.90
2018-10-02T07:33:51.407Z,80.00
2018-10-02T07:36:20.880Z,79.90
2018-10-02T07:38:50.601Z,78.90
2018-10-02T07:41:20.219Z,78.30
2018-10-02T07:43:49.838Z,77.90
2018-10-02T07:46:19.439Z,77.50
2018-10-02T07:48:49.814Z,76.30
2018-10-02T07:51:19.191Z,76.50
2018-10-02T07:53:48.549Z,76.50
2018-10-02T07:56:18.055Z,75.30
2018-10-02T07:58:47.571Z,74.60
2018-10-02T08:01:17.169Z,74.20
2018-10-02T08:03:46.725Z,73.10
2018-10-02T08:06:17.283Z,73.00
2018-10-02T08:08:46.782Z,72.50
2018-10-02T08:11:17.258Z,71.40
2018-10-02T08:13:46.995Z,71.30
2018-10-02T08:16:16.475Z,70.90
2018-10-02T08:18:45.883Z,69.70
2018-10-02T08:21:15.209Z,70.30
2018-10-02T08:23:44.631Z,68.40
2018-10-02T08:26:14.075Z,69.30
2018-10-02T08:28:43.520Z,67.00
2018-10-02T08:31:12.956Z,64.20
2018-10-02T08:33:43.739Z,62.60
2018-10-02T08:36:13.721Z,64.00
2018-10-02T08:38:43.196Z,59.50
2018-10-02T08:41:13.142Z,58.90
2018-10-02T08:43:43.061Z,60.40
2018-10-02T08:46:13.277Z,58.10
2018-10-02T08:48:43.300Z,52.10
2018-10-02T08:51:13.347Z,51.50
2018-10-02T08:53:43.228Z,51.70
2018-10-02T08:56:14.013Z,48.80
2018-10-02T08:58:43.429Z,51.10
2018-10-02T09:01:13.046Z,49.10
2018-10-02T09:03:42.665Z,46.80
2018-10-02T09:06:12.253Z,46.60
2018-10-02T09:08:42.607Z,44.70
2018-10-02T09:11:13.483Z,46.40
2018-10-02T09:13:43.129Z,45.80
2018-10-02T09:16:12.458Z,42.70
2018-10-02T09:18:42.680Z,40.30
2018-10-02T09:21:11.835Z,41.00
2018-10-02T09:23:42.176Z,41.00
2018-10-02T09:26:11.492Z,42.20
2018-10-02T09:28:40.872Z,42.60
2018-10-02T09:31:15.591Z,45.20
2018-10-02T09:33:54.941Z,45.20
2018-10-02T09:36:29.737Z,45.40
2018-10-02T09:39:28.186Z,46.70
2018-10-02T09:42:02.813Z,46.20
2018-10-02T09:44:32.679Z,46.00
2018-10-02T09:47:02.291Z,46.00
2018-10-02T09:49:31.901Z,45.50
2018-10-02T09:52:01.535Z,44.30
2018-10-02T09:54:31.069Z,42.20
2018-10-02T09:57:00.900Z,41.50
2018-10-02T09:59:30.523Z,40.80
2018-10-02T10:02:05.245Z,41.70
2018-10-02T10:04:34.734Z,42.10
2018-10-02T10:07:04.375Z,42.70
2018-10-02T10:09:34.105Z,42.50
2018-10-02T10:12:03.677Z,41.50
2018-10-02T10:14:33.229Z,39.90
2018-10-02T10:17:02.971Z,39.60
2018-10-02T10:19:33.499Z,40.50
2018-10-02T10:22:03.579Z,40.00
2018-10-02T10:24:33.169Z,38.70
2018-10-02T10:27:02.892Z,38.90
2018-10-02T10:29:32.470Z,40.00
2018-10-02T10:32:02.395Z,39.30
2018-10-02T10:34:34.224Z,38.50
2018-10-02T10:37:03.834Z,39.90
2018-10-02T10:39:33.489Z,38.70
2018-10-02T10:42:02.935Z,37.80
2018-10-02T10:44:32.443Z,38.60
2018-10-02T10:47:01.985Z,39.40
2018-10-02T10:49:31.377Z,40.70
2018-10-02T10:52:00.899Z,41.60
2018-10-02T10:54:30.358Z,42.00
2018-10-02T10:56:59.730Z,42.90
2018-10-02T10:59:29.682Z,43.50
2018-10-02T11:01:59.131Z,43.90
2018-10-02T11:04:28.899Z,43.90
2018-10-02T11:06:58.234Z,44.20
2018-10-02T11:09:27.833Z,43.70
2018-10-02T11:11:57.186Z,44.10
2018-10-02T11:14:26.779Z,44.10
2018-10-02T11:16:56.163Z,43.90
2018-10-02T11:19:25.596Z,43.60
2018-10-02T11:21:55.761Z,43.90
2018-10-02T11:24:25.690Z,42.70
2018-10-02T11:26:55.381Z,43.50
2018-10-02T11:29:25.314Z,43.50
2018-10-02T11:31:56.673Z,44.10
2018-10-02T11:34:26.827Z,43.70
2018-10-02T11:36:57.169Z,44.20
2018-10-02T11:39:26.688Z,44.50
2018-10-02T11:41:56.100Z,44.90
2018-10-02T11:44:25.727Z,44.60
2018-10-02T11:46:55.031Z,44.30
2018-10-02T11:49:24.500Z,44.40
2018-10-02T11:51:53.863Z,44.60
2018-10-02T11:54:23.304Z,44.60
2018-10-02T11:56:54.519Z,43.80
2018-10-02T11:59:24.415Z,43.80
2018-10-02T12:01:53.773Z,43.10
2018-10-02T12:04:23.187Z,43.60
2018-10-02T12:06:52.730Z,43.50
2018-10-02T12:09:22.181Z,43.20
2018-10-02T12:11:51.535Z,44.40
2018-10-02T12:14:21.657Z,44.70
2018-10-02T12:16:51.027Z,45.30
2018-10-02T12:19:20.394Z,45.80
2018-10-02T12:21:49.761Z,46.20
2018-10-02T12:24:19.180Z,46.40
2018-10-02T12:26:48.739Z,46.30
2018-10-02T12:29:18.234Z,46.60
2018-10-02T12:31:47.603Z,45.30
2018-10-02T12:34:16.953Z,44.30
2018-10-02T12:36:47.431Z,44.10
2018-10-02T12:39:17.071Z,44.10
2018-10-02T12:41:46.361Z,43.60
2018-10-02T12:44:15.691Z,43.70
2018-10-02T12:46:45.077Z,43.90
2018-10-02T12:49:14.485Z,44.10
2018-10-02T12:51:44.154Z,44.30
2018-10-02T12:54:13.477Z,44.50
2018-10-02T12:56:42.994Z,44.80
2018-10-02T12:59:12.528Z,45.80
2018-10-02T13:01:42.127Z,45.60
2018-10-02T13:04:11.804Z,46.00
2018-10-02T13:06:41.311Z,46.30
2018-10-02T13:09:11.252Z,46.60
2018-10-02T13:11:40.676Z,46.60
2018-10-02T13:14:10.447Z,46.90
2018-10-02T13:17:07.862Z,46.30
2018-10-02T13:19:37.267Z,46.30
2018-10-02T13:22:06.895Z,46.70
2018-10-02T13:24:36.430Z,47.00
2018-10-02T13:27:06.033Z,47.30
2018-10-02T13:29:55.091Z,47.30
2018-10-02T13:32:24.823Z,46.80
2018-10-02T13:34:54.305Z,47.30
2018-10-02T13:37:23.851Z,47.50
2018-10-02T13:39:53.351Z,46.70
2018-10-02T13:42:23.059Z,46.60
2018-10-02T13:44:52.641Z,46.80
2018-10-02T13:47:22.037Z,46.20
2018-10-02T13:49:51.624Z,46.10
2018-10-02T13:52:21.334Z,46.00
2018-10-02T13:54:50.997Z,46.60
2018-10-02T13:57:21.245Z,47.40
2018-10-02T13:59:52.132Z,46.90
2018-10-02T14:02:22.781Z,47.50
2018-10-02T14:04:52.079Z,47.40
2018-10-02T14:07:21.371Z,47.60
2018-10-02T14:09:50.751Z,47.80
2018-10-02T14:12:20.043Z,48.10
2018-10-02T14:14:49.544Z,48.40
2018-10-02T14:17:18.917Z,48.00
2018-10-02T14:19:48.243Z,48.10
2018-10-02T14:22:21.196Z,48.20
2018-10-02T14:24:50.443Z,48.70
2018-10-02T14:27:19.827Z,48.40
2018-10-02T14:29:49.277Z,48.50
2018-10-02T14:32:18.810Z,49.00
2018-10-02T14:34:48.249Z,49.30
2018-10-02T14:37:17.653Z,49.50
2018-10-02T14:39:47.020Z,49.80
2018-10-02T14:42:16.617Z,49.90
2018-10-02T14:44:46.068Z,50.10
2018-10-02T14:47:15.939Z,50.70
2018-10-02T14:49:45.235Z,50.60
2018-10-02T14:52:14.653Z,50.50
2018-10-02T14:54:44.035Z,50.70
2018-10-02T14:57:13.475Z,50.70
2018-10-02T14:59:43.019Z,51.00
2018-10-02T15:02:12.513Z,51.10
2018-10-02T15:04:42.132Z,51.00
2018-10-02T15:07:11.435Z,51.10
2018-10-02T15:09:40.895Z,51.60
2018-10-02T15:12:10.341Z,51.80
2018-10-02T15:14:39.723Z,52.20
2018-10-02T15:17:09.146Z,51.60
2018-10-02T15:19:38.807Z,51.90
2018-10-02T15:22:08.145Z,52.30
2018-10-02T15:24:37.481Z,52.20
2018-10-02T15:27:06.911Z,52.50
2018-10-02T15:29:36.349Z,52.50
2018-10-02T15:32:05.769Z,53.10
2018-10-02T15:34:35.225Z,53.00
2018-10-02T15:37:04.724Z,53.10
2018-10-02T15:39:34.310Z,53.20
2018-10-02T15:42:03.783Z,53.00
2018-10-02T15:44:33.380Z,53.30
2018-10-02T15:47:02.734Z,53.30
2018-10-02T15:49:32.037Z,54.60
2018-10-02T15:52:01.401Z,53.90
2018-10-02T15:54:30.720Z,53.90
2018-10-02T15:57:00.048Z,54.30
2018-10-02T15:59:29.539Z,54.00
2018-10-02T16:01:58.935Z,54.30
2018-10-02T16:04:28.347Z,54.40
2018-10-02T16:06:57.738Z,54.30
2018-10-02T16:09:27.155Z,54.20
2018-10-02T16:11:56.535Z,54.50
2018-10-02T16:14:25.875Z,54.70
2018-10-02T16:16:55.219Z,54.80
2018-10-02T16:19:24.548Z,54.90
2018-10-02T16:21:54.156Z,54.90
2018-10-02T16:24:23.678Z,55.10
2018-10-02T16:26:53.060Z,55.00
2018-10-02T16:29:22.504Z,55.10
2018-10-02T16:31:52.066Z,55.10
2018-10-02T16:34:21.440Z,55.60
2018-10-02T16:36:51.149Z,55.40
2018-10-02T16:39:22.309Z,56.00
2018-10-02T16:41:51.845Z,55.90
2018-10-02T16:44:21.211Z,56.30
2018-10-02T16:46:50.835Z,55.50
2018-10-02T16:49:20.263Z,56.30
2018-10-02T16:51:49.732Z,56.20
2018-10-02T16:54:19.171Z,56.50
2018-10-02T16:56:48.571Z,56.20
2018-10-02T16:59:17.947Z,56.80
2018-10-02T17:01:47.515Z,56.60
2018-10-02T17:04:16.915Z,56.70
2018-10-02T17:06:46.341Z,56.70
2018-10-02T17:09:15.879Z,57.00
2018-10-02T17:11:45.296Z,57.30
2018-10-02T17:14:14.770Z,57.60
2018-10-02T17:16:44.189Z,58.20
2018-10-02T17:19:13.589Z,57.80
2018-10-02T17:21:42.973Z,57.50
2018-10-02T17:24:12.608Z,57.70
2018-10-02T17:26:42.135Z,58.20
2018-10-02T17:29:11.879Z,58.60
2018-10-02T17:31:41.454Z,58.50
2018-10-02T17:34:10.914Z,58.70
2018-10-02T17:36:40.263Z,58.60
2018-10-02T17:39:11.053Z,58.20
2018-10-02T17:41:57.111Z,58.90
2018-10-02T17:44:26.531Z,58.40
2018-10-02T17:46:58.172Z,58.80
2018-10-02T17:49:27.836Z,58.90
2018-10-02T17:51:57.375Z,60.50
2018-10-02T17:54:27.188Z,58.30
2018-10-02T17:56:57.352Z,58.70
2018-10-02T17:59:27.239Z,59.50
2018-10-02T18:01:57.039Z,58.80
2018-10-02T18:04:26.704Z,59.20
2018-10-02T18:06:56.609Z,59.70
2018-10-02T18:09:26.292Z,59.50
2018-10-02T18:11:56.437Z,59.40
2018-10-02T18:14:25.792Z,59.30
2018-10-02T18:16:55.287Z,59.40
2018-10-02T18:19:29.294Z,59.80
2018-10-02T18:21:58.868Z,59.80
2018-10-02T18:24:28.370Z,59.50
2018-10-02T18:26:58.014Z,59.20
2018-10-02T18:29:27.595Z,59.80
2018-10-02T18:31:57.597Z,59.40
2018-10-02T18:34:27.143Z,60.10
2018-10-02T18:36:58.183Z,59.40
2018-10-02T18:39:27.657Z,59.80
2018-10-02T18:41:57.139Z,59.90
2018-10-02T18:45:02.072Z,59.90
2018-10-02T18:47:31.878Z,60.30
2018-10-02T18:50:01.644Z,60.10
2018-10-02T18:52:31.205Z,60.30
2018-10-02T18:55:00.771Z,60.30
2018-10-02T18:57:30.435Z,60.00
2018-10-02T19:00:00.010Z,60.40
2018-10-02T19:02:29.658Z,61.10
2018-10-02T19:04:59.139Z,60.20
2018-10-02T19:07:53.637Z,60.30
2018-10-02T19:24:45.480Z,60.40
2018-10-02T19:27:15.106Z,60.00
2018-10-02T19:29:44.686Z,59.90
2018-10-02T19:32:16.014Z,60.60
2018-10-02T19:34:45.648Z,59.80
2018-10-02T19:37:20.409Z,60.20
2018-10-02T19:39:49.926Z,60.60
2018-10-02T19:42:19.787Z,59.80
2018-10-02T19:44:49.266Z,60.00
2018-10-02T19:47:18.849Z,59.80
2018-10-02T19:49:50.369Z,59.90
2018-10-02T19:52:21.199Z,60.10
2018-10-02T19:54:51.062Z,61.30
2018-10-02T19:57:20.519Z,60.10
2018-10-02T19:59:49.987Z,60.50
2018-10-02T20:02:19.475Z,60.20
2018-10-02T20:04:48.859Z,60.70
2018-10-02T20:07:18.297Z,61.00
2018-10-02T20:09:47.858Z,60.60
2018-10-02T20:12:17.376Z,60.60
2018-10-02T20:14:46.776Z,61.10
2018-10-02T20:17:16.327Z,61.10
2018-10-02T20:19:45.682Z,61.30
2018-10-02T20:22:15.169Z,61.50
2018-10-02T20:24:44.659Z,61.70
2018-10-02T20:27:48.751Z,61.70
2018-10-02T20:30:18.195Z,62.50
2018-10-02T20:32:47.681Z,61.60
2018-10-02T20:35:17.095Z,62.10
2018-10-02T20:37:46.556Z,62.10
2018-10-02T20:40:15.895Z,62.30
2018-10-02T20:42:45.348Z,62.30
2018-10-02T20:45:14.857Z,62.60
2018-10-02T20:47:44.360Z,62.60
2018-10-02T20:50:14.333Z,62.40
2018-10-02T20:52:43.687Z,62.80
2018-10-02T20:55:13.078Z,62.80
2018-10-02T20:57:42.423Z,62.50
2018-10-02T21:00:12.519Z,62.50
2018-10-02T21:02:42.245Z,62.30
2018-10-02T21:05:11.734Z,62.60
2018-10-02T21:07:41.595Z,62.80
2018-10-02T21:10:11.353Z,61.90
2018-10-02T21:12:41.377Z,61.70
2018-10-02T21:15:10.964Z,61.60
2018-10-02T21:17:40.332Z,61.80
2018-10-02T21:20:09.980Z,61.40
2018-10-02T21:22:39.579Z,62.10
2018-10-02T21:25:09.197Z,61.00
2018-10-02T21:27:38.711Z,61.00
2018-10-02T21:30:08.252Z,60.60
2018-10-02T21:32:37.709Z,61.30
2018-10-02T21:35:07.283Z,61.60
2018-10-02T21:37:36.756Z,61.50
2018-10-02T21:40:06.431Z,62.50
2018-10-02T21:42:35.897Z,61.30
2018-10-02T21:45:05.485Z,61.00
2018-10-02T21:47:34.940Z,61.30
2018-10-02T21:50:04.294Z,62.00
2018-10-02T21:52:33.898Z,62.50
2018-10-02T21:55:03.464Z,64.00
2018-10-02T21:57:32.920Z,64.60
2018-10-02T22:00:02.412Z,65.40
2018-10-02T22:02:31.866Z,65.50
2018-10-02T22:05:01.385Z,65.40
2018-10-02T22:07:30.778Z,65.50
2018-10-02T22:10:00.211Z,65.00
2018-10-02T22:12:29.619Z,65.10
2018-10-02T22:14:59.031Z,65.00
2018-10-02T22:17:28.491Z,64.70
2018-10-02T22:19:57.976Z,64.40
2018-10-02T22:22:27.478Z,65.30
2018-10-02T22:24:56.944Z,64.60
2018-10-02T22:27:26.398Z,65.40
2018-10-02T22:29:55.804Z,63.70
2018-10-02T22:32:26.201Z,63.80
2018-10-02T22:34:55.611Z,63.80
2018-10-02T22:37:25.031Z,63.80
2018-10-02T22:39:54.484Z,64.30
2018-10-02T22:42:23.829Z,63.50
2018-10-02T22:44:53.458Z,62.80
2018-10-02T22:47:23.055Z,63.00
2018-10-02T22:49:52.462Z,62.30
2018-10-02T22:52:22.054Z,62.30
2018-10-02T22:54:51.704Z,62.00
2018-10-02T22:57:39.109Z,62.00
2018-10-02T23:00:25.308Z,62.20
2018-10-02T23:02:54.759Z,62.00
2018-10-02T23:05:24.314Z,62.20
2018-10-02T23:07:53.769Z,62.60
2018-10-02T23:10:23.258Z,62.00
2018-10-02T23:12:52.779Z,61.90
2018-10-02T23:15:22.273Z,61.90
2018-10-02T23:17:51.920Z,61.70
2018-10-02T23:20:21.355Z,61.40
2018-10-02T23:22:50.813Z,61.40
2018-10-02T23:25:20.490Z,61.90
2018-10-02T23:27:49.995Z,61.80
2018-10-02T23:30:19.445Z,62.60
2018-10-02T23:32:49.127Z,62.20
2018-10-02T23:38:54.911Z,62.60
2018-10-02T23:41:24.535Z,64.00
2018-10-02T23:43:54.053Z,64.00
2018-10-02T23:46:24.101Z,63.90
2018-10-02T23:48:54.035Z,66.90
2018-10-02T23:51:23.591Z,70.80
2018-10-02T23:53:53.119Z,72.40
2018-10-02T23:56:23.889Z,75.40
2018-10-02T23:58:53.871Z,75.50
